This is the latest recevied weather packets stored in our database for station/object ZB2YN-13. If no packets are shown the sender has not sent any weather packets the latest 10 day(s).
| Time | Temp. | Humidity | Pressure | Rain* | Wind** | Luminosity | Snow |
|---|---|---|---|---|---|---|---|
| 1777878005 | 16.67° C | 84% | 1007.8 hPa | 0 mm | - | - | - |
| 1777874406 | 16.67° C | 84% | 1007.2 hPa | 0 mm | - | - | - |
| 1777870806 | 16.67° C | 83% | 1006.6 hPa | 0 mm | - | - | - |
| 1777867205 | 16.67° C | 82% | 1006.5 hPa | 0 mm | - | - | - |
| 1777863605 | 16.67° C | 80% | 1006.7 hPa | 0 mm | - | - | - |
| 1777860005 | 16.67° C | 81% | 1006.8 hPa | 0 mm | - | - | - |
| 1777856406 | 16.67° C | 80% | 1007.3 hPa | 0 mm | - | - | - |
| 1777852805 | 16.67° C | 81% | 1007.6 hPa | 0 mm | - | - | - |
| 1777849205 | 17.22° C | 80% | 1008 hPa | 0 mm | - | - | - |
| 1777845605 | 17.78° C | 80% | 1008 hPa | 0 mm | - | - | - |
| 1777842005 | 18.33° C | 79% | 1007.3 hPa | 0 mm | - | - | - |
| 1777838406 | 19.44° C | 76% | 1006.4 hPa | 0 mm | - | - | - |
| 1777834805 | 20.56° C | 72% | 1005.9 hPa | 0 mm | - | - | - |
| 1777831205 | 22.22° C | 62% | 1005.4 hPa | 0 mm | - | - | - |
| 1777827605 | 23.33° C | 58% | 1005.6 hPa | 0 mm | - | - | - |
| 1777824005 | 24.44° C | 52% | 1005.7 hPa | 0 mm | - | - | - |
| 1777820406 | 24.44° C | 52% | 1006.2 hPa | 0 mm | - | - | - |
| 1777816806 | 23.89° C | 57% | 1006.6 hPa | 0 mm | - | - | - |
| 1777813205 | 23.33° C | 64% | 1006.9 hPa | 0 mm | - | - | - |
| 1777809605 | 21.67° C | 73% | 1007.5 hPa | 0 mm | - | - | - |
| 1777806006 | 21.11° C | 75% | 1008 hPa | 0 mm | - | - | - |
| 1777802406 | 20° C | 82% | 1008.3 hPa | 0 mm | - | - | - |
| 1777798806 | 20.56° C | 77% | 1008.1 hPa | 0 mm | - | - | - |
| 1777795205 | 17.78° C | 92% | 1008.1 hPa | 0 mm | - | - | - |
| 1777791605 | 17.22° C | 94% | 1007.7 hPa | 0 mm | - | - | - |
* Rain latest hour (hover to see other rain measurements)
** Current wind speed in m/s (hover to see current wind gust speed)